createdAt,value
2022-12-05T00:01:27.536Z,97.08
2022-12-05T00:02:51.224Z,96.67
2022-12-05T00:04:15.186Z,96.88
2022-12-05T00:05:41.524Z,96.51
2022-12-05T00:07:05.230Z,96.64
2022-12-05T00:08:28.024Z,96.99
2022-12-05T00:09:51.825Z,96.85
2022-12-05T00:11:17.044Z,96.70
2022-12-05T00:12:40.935Z,96.89
2022-12-05T00:14:04.727Z,96.84
2022-12-05T00:15:28.417Z,96.81
2022-12-05T00:16:53.618Z,97.11
2022-12-05T00:18:17.345Z,96.89
2022-12-05T00:19:41.423Z,96.67
2022-12-05T00:21:04.565Z,96.81
2022-12-05T00:22:28.292Z,97.14
2022-12-05T00:23:51.755Z,96.63
2022-12-05T00:25:15.571Z,96.89
2022-12-05T00:26:39.976Z,96.79
2022-12-05T00:28:03.658Z,96.64
2022-12-05T00:29:27.285Z,96.72
2022-12-05T00:30:50.157Z,97.04
2022-12-05T00:32:15.447Z,96.73
2022-12-05T00:33:38.574Z,96.71
2022-12-05T00:35:02.650Z,96.59
2022-12-05T00:36:27.522Z,96.87
2022-12-05T00:37:51.223Z,96.95
2022-12-05T00:39:15.562Z,96.80
2022-12-05T00:40:39.257Z,96.58
2022-12-05T00:42:02.965Z,96.91
2022-12-05T00:43:25.640Z,96.64
2022-12-05T00:44:50.883Z,96.93
2022-12-05T00:46:18.228Z,96.71
2022-12-05T00:47:43.396Z,96.56
2022-12-05T00:49:07.223Z,96.64
2022-12-05T00:50:31.108Z,96.75
2022-12-05T00:51:54.844Z,96.59
2022-12-05T00:53:17.578Z,96.90
2022-12-05T00:54:41.316Z,96.87
2022-12-05T00:56:04.683Z,96.88
2022-12-05T00:57:28.536Z,96.78
2022-12-05T00:58:52.957Z,96.87
2022-12-05T01:00:17.618Z,96.63
2022-12-05T01:01:42.582Z,97.06
2022-12-05T01:03:07.770Z,96.63
2022-12-05T01:04:31.594Z,96.65
2022-12-05T01:05:54.426Z,96.82
2022-12-05T01:07:18.185Z,96.91
2022-12-05T01:08:40.992Z,96.99
2022-12-05T01:10:05.390Z,96.52
2022-12-05T01:11:28.753Z,96.78
2022-12-05T01:12:52.418Z,96.75
2022-12-05T01:14:17.814Z,96.95
2022-12-05T01:15:40.404Z,96.90
2022-12-05T01:17:04.167Z,96.77
2022-12-05T01:18:28.645Z,97.01
2022-12-05T01:19:52.354Z,97.10
2022-12-05T01:21:15.058Z,96.66
2022-12-05T01:22:38.764Z,97.04
2022-12-05T01:24:01.474Z,96.72
2022-12-05T01:25:25.162Z,97.06
2022-12-05T01:26:48.152Z,96.91
2022-12-05T01:28:11.884Z,96.84
2022-12-05T01:29:35.667Z,96.68
2022-12-05T01:30:58.291Z,96.67
2022-12-05T01:32:22.110Z,97.23
2022-12-05T01:33:46.366Z,97.16
2022-12-05T01:35:10.870Z,96.81
2022-12-05T01:36:34.449Z,97.04
2022-12-05T01:37:58.180Z,96.83
2022-12-05T01:39:21.881Z,96.97
2022-12-05T01:40:44.520Z,97.31
2022-12-05T01:42:08.299Z,97.40
2022-12-05T01:43:31.500Z,97.05
2022-12-05T01:45:08.058Z,97.19
2022-12-05T01:46:32.565Z,96.76
2022-12-05T01:47:57.125Z,96.90
2022-12-05T01:49:24.630Z,97.16
2022-12-05T01:50:48.119Z,97.03
2022-12-05T01:52:16.203Z,96.64
2022-12-05T01:53:40.274Z,96.95
2022-12-05T01:55:07.822Z,96.80
2022-12-05T01:56:33.074Z,96.90
2022-12-05T01:57:57.593Z,96.70
2022-12-05T01:59:23.363Z,96.65
2022-12-05T02:00:47.460Z,96.92
2022-12-05T02:02:10.358Z,96.46
2022-12-05T02:03:34.644Z,96.95
2022-12-05T02:05:04.233Z,96.42
2022-12-05T02:06:28.785Z,96.85
2022-12-05T02:07:52.855Z,96.74
2022-12-05T02:09:18.014Z,96.94
2022-12-05T02:10:43.617Z,97.04
2022-12-05T02:12:06.712Z,96.63
2022-12-05T02:13:39.974Z,96.56
2022-12-05T02:15:15.681Z,96.89
2022-12-05T02:16:49.122Z,96.77
2022-12-05T02:18:42.721Z,96.52
2022-12-05T02:20:14.809Z,96.98
2022-12-05T02:21:38.974Z,96.76
2022-12-05T02:23:33.132Z,96.74
2022-12-05T02:24:54.566Z,96.77
2022-12-05T02:26:27.164Z,96.55
2022-12-05T02:27:43.973Z,96.58
2022-12-05T02:29:20.774Z,96.99
2022-12-05T02:30:25.105Z,96.60
2022-12-05T02:31:35.310Z,96.96
2022-12-05T02:32:52.200Z,97.05
2022-12-05T02:34:03.845Z,96.69
2022-12-05T02:35:13.088Z,96.74
2022-12-05T02:36:19.575Z,96.89
2022-12-05T02:37:26.884Z,97.04
2022-12-05T02:38:33.083Z,96.66
2022-12-05T02:39:41.364Z,96.78
2022-12-05T02:40:50.398Z,97.03
2022-12-05T02:41:57.080Z,96.63
2022-12-05T02:43:02.546Z,96.46
2022-12-05T02:44:07.863Z,96.51
2022-12-05T02:45:12.923Z,96.50
2022-12-05T02:46:20.540Z,96.76
2022-12-05T02:47:26.914Z,96.65
2022-12-05T02:48:30.996Z,96.17
2022-12-05T02:49:36.562Z,96.39
2022-12-05T02:50:40.862Z,96.28
2022-12-05T02:51:44.962Z,96.14
2022-12-05T02:52:51.004Z,96.33
2022-12-05T02:53:55.617Z,95.84
2022-12-05T02:54:59.944Z,96.27
2022-12-05T02:56:03.683Z,96.24
2022-12-05T02:57:07.905Z,95.87
2022-12-05T02:58:15.123Z,96.04
2022-12-05T02:59:23.327Z,96.19
2022-12-05T03:00:26.525Z,96.44
2022-12-05T03:01:33.513Z,96.27
2022-12-05T03:02:39.374Z,96.12
2022-12-05T03:03:43.194Z,96.08
2022-12-05T03:04:46.105Z,96.17
2022-12-05T03:05:53.848Z,96.34
2022-12-05T03:07:00.063Z,96.24
2022-12-05T03:08:05.041Z,95.91
2022-12-05T03:09:10.402Z,95.83
2022-12-05T03:10:15.137Z,96.10
2022-12-05T03:11:17.925Z,96.02
2022-12-05T03:12:24.244Z,95.91
2022-12-05T03:13:28.391Z,96.08
2022-12-05T03:14:36.194Z,96.07
2022-12-05T03:15:41.324Z,95.67
2022-12-05T03:16:49.953Z,95.92
2022-12-05T03:17:54.814Z,95.86
2022-12-05T03:19:00.606Z,95.87
2022-12-05T03:20:06.472Z,95.69
2022-12-05T03:21:15.177Z,95.98
2022-12-05T03:22:22.924Z,95.52
2022-12-05T03:23:29.873Z,95.70
2022-12-05T03:24:35.242Z,95.99
2022-12-05T03:25:48.315Z,95.69
2022-12-05T03:26:56.961Z,96.00
2022-12-05T03:28:06.044Z,95.47
2022-12-05T03:29:23.304Z,95.91
2022-12-05T03:30:27.465Z,95.65
2022-12-05T03:31:36.123Z,96.04
2022-12-05T03:32:44.735Z,95.49
2022-12-05T03:33:51.345Z,95.95
2022-12-05T03:35:03.974Z,95.92
2022-12-05T03:36:12.314Z,96.13
2022-12-05T03:37:22.259Z,95.90
2022-12-05T03:38:27.444Z,96.23
2022-12-05T03:39:33.202Z,96.01
2022-12-05T03:40:40.244Z,95.77
2022-12-05T03:41:51.307Z,95.98
2022-12-05T03:42:56.855Z,95.84
2022-12-05T03:44:03.033Z,96.04
2022-12-05T03:45:09.932Z,95.53
2022-12-05T03:46:17.927Z,96.06
2022-12-05T03:47:24.264Z,95.67
2022-12-05T03:48:33.452Z,96.24
2022-12-05T03:49:38.564Z,95.81
2022-12-05T03:50:44.365Z,95.89
2022-12-05T03:51:52.675Z,95.68
2022-12-05T03:53:19.123Z,95.90
2022-12-05T03:54:25.207Z,96.02
2022-12-05T03:55:30.285Z,95.75
2022-12-05T03:56:37.495Z,95.58
2022-12-05T03:57:44.081Z,96.17
2022-12-05T03:58:51.291Z,95.82
2022-12-05T03:59:58.368Z,96.01
2022-12-05T04:01:03.279Z,95.58
2022-12-05T04:02:11.235Z,95.69
2022-12-05T04:03:18.023Z,95.72
2022-12-05T04:04:26.535Z,95.77
2022-12-05T04:05:34.044Z,95.44
2022-12-05T04:06:39.044Z,95.78
2022-12-05T04:07:43.741Z,95.54
2022-12-05T04:08:49.965Z,95.89
2022-12-05T04:09:57.937Z,96.09
2022-12-05T04:11:04.207Z,95.86
2022-12-05T04:12:11.873Z,95.61
2022-12-05T04:13:18.143Z,96.00
2022-12-05T04:14:27.995Z,96.01
2022-12-05T04:15:52.311Z,95.71
2022-12-05T04:17:03.744Z,95.52
2022-12-05T04:18:07.392Z,95.66
2022-12-05T04:19:15.927Z,95.71
2022-12-05T04:20:41.529Z,95.76
2022-12-05T04:21:47.944Z,95.70
2022-12-05T04:22:51.044Z,95.58
2022-12-05T04:24:08.573Z,95.40
2022-12-05T04:25:31.669Z,95.76
2022-12-05T04:26:36.304Z,95.61
2022-12-05T04:27:42.512Z,95.56
2022-12-05T04:28:52.673Z,95.49
2022-12-05T04:30:03.734Z,95.32
2022-12-05T04:31:09.547Z,95.74
2022-12-05T04:32:14.044Z,95.72
2022-12-05T04:33:19.962Z,95.58
2022-12-05T04:34:23.476Z,95.92
2022-12-05T04:35:31.850Z,95.87
2022-12-05T04:36:39.305Z,95.54
2022-12-05T04:37:46.975Z,96.06
2022-12-05T04:38:52.678Z,95.58
2022-12-05T04:40:00.271Z,95.43
2022-12-05T04:41:05.544Z,96.04
2022-12-05T04:42:10.315Z,95.72
2022-12-05T04:43:14.841Z,95.40
2022-12-05T04:44:19.685Z,95.43
2022-12-05T04:45:24.504Z,95.60
2022-12-05T04:46:27.477Z,95.25
2022-12-05T04:47:33.892Z,95.72
2022-12-05T04:48:39.224Z,95.40
2022-12-05T04:49:45.968Z,95.31
2022-12-05T04:50:55.864Z,95.24
2022-12-05T04:52:03.302Z,95.33
2022-12-05T04:53:07.511Z,95.28
2022-12-05T04:54:14.888Z,95.13
2022-12-05T04:55:25.966Z,95.28
2022-12-05T04:56:30.993Z,95.78
2022-12-05T04:57:38.266Z,95.66
2022-12-05T04:58:40.952Z,95.56
2022-12-05T04:59:44.766Z,95.26
2022-12-05T05:00:52.433Z,95.57
2022-12-05T05:01:59.846Z,95.18
2022-12-05T05:03:07.966Z,95.43
2022-12-05T05:04:15.784Z,95.54
2022-12-05T05:05:19.552Z,95.28
2022-12-05T05:06:24.678Z,95.63
2022-12-05T05:07:27.548Z,95.61
2022-12-05T05:08:31.553Z,95.41
2022-12-05T05:09:34.364Z,95.59
2022-12-05T05:10:41.525Z,95.29
2022-12-05T05:11:44.223Z,95.57
2022-12-05T05:12:47.903Z,95.32
2022-12-05T05:13:51.927Z,95.63
2022-12-05T05:14:54.652Z,95.34
2022-12-05T05:15:58.448Z,94.96
2022-12-05T05:17:01.557Z,95.10
2022-12-05T05:18:05.538Z,95.14
2022-12-05T05:19:09.542Z,95.37
2022-12-05T05:20:25.624Z,95.75
2022-12-05T05:21:31.832Z,95.05
2022-12-05T05:22:35.595Z,95.42
2022-12-05T05:23:38.285Z,95.34
2022-12-05T05:24:42.044Z,95.03
2022-12-05T05:25:44.743Z,95.07
2022-12-05T05:26:53.888Z,95.42
2022-12-05T05:27:59.656Z,95.29
2022-12-05T05:29:03.616Z,95.48
2022-12-05T05:30:07.622Z,95.20
2022-12-05T05:31:11.585Z,94.84
2022-12-05T05:32:14.413Z,95.04
2022-12-05T05:33:18.294Z,94.98
2022-12-05T05:34:20.966Z,94.46
2022-12-05T05:35:24.904Z,94.67
2022-12-05T05:36:29.583Z,94.37
2022-12-05T05:37:33.424Z,94.36
2022-12-05T05:38:37.464Z,94.71
2022-12-05T05:39:41.186Z,94.58
2022-12-05T05:40:44.947Z,94.01
2022-12-05T05:41:48.747Z,94.18
2022-12-05T05:42:51.473Z,93.78
2022-12-05T05:43:55.455Z,94.26
2022-12-05T05:44:58.214Z,94.07
2022-12-05T05:46:05.259Z,93.73
2022-12-05T05:47:08.151Z,93.84
2022-12-05T05:48:11.884Z,93.94
2022-12-05T05:49:14.527Z,93.84
2022-12-05T05:50:21.762Z,94.06
2022-12-05T05:51:28.121Z,93.51
2022-12-05T05:52:34.981Z,93.91
2022-12-05T05:53:39.109Z,93.82
2022-12-05T05:54:42.154Z,93.90
2022-12-05T05:55:46.004Z,93.72
2022-12-05T05:56:48.714Z,93.45
2022-12-05T05:57:52.425Z,93.97
2022-12-05T05:58:56.907Z,93.69
2022-12-05T06:00:01.046Z,93.95
2022-12-05T06:01:05.056Z,93.79
2022-12-05T06:02:08.873Z,93.84
2022-12-05T06:03:12.894Z,93.62
2022-12-05T06:04:15.912Z,93.82
2022-12-05T06:05:20.032Z,94.17
2022-12-05T06:06:23.563Z,94.15
2022-12-05T06:07:27.465Z,94.16
2022-12-05T06:08:32.334Z,94.22
2022-12-05T06:09:36.234Z,94.08
2022-12-05T06:10:40.294Z,94.06
2022-12-05T06:11:43.482Z,94.20
2022-12-05T06:12:47.584Z,93.60
2022-12-05T06:13:51.382Z,93.77
2022-12-05T06:14:55.145Z,93.70
2022-12-05T06:15:57.965Z,94.12
2022-12-05T06:17:01.724Z,93.83
2022-12-05T06:18:04.567Z,93.88
2022-12-05T06:19:08.321Z,93.87
2022-12-05T06:20:11.679Z,94.12
2022-12-05T06:21:16.490Z,93.97
2022-12-05T06:22:19.422Z,94.13
2022-12-05T06:23:23.363Z,94.00
2022-12-05T06:24:27.533Z,94.21
2022-12-05T06:25:31.295Z,94.01
2022-12-05T06:26:33.942Z,93.92
2022-12-05T06:27:37.904Z,94.41
2022-12-05T06:28:40.894Z,94.27
2022-12-05T06:29:44.663Z,94.62
2022-12-05T06:30:47.824Z,94.29
2022-12-05T06:31:51.591Z,94.53
2022-12-05T06:32:54.449Z,94.18
2022-12-05T06:34:01.763Z,94.36
2022-12-05T06:35:15.384Z,94.71
2022-12-05T06:36:20.554Z,94.33
2022-12-05T06:37:23.219Z,94.94
2022-12-05T06:38:26.973Z,94.41
2022-12-05T06:39:32.686Z,94.68
2022-12-05T06:40:35.595Z,94.96
2022-12-05T06:41:39.437Z,95.10
2022-12-05T06:42:42.108Z,94.86
2022-12-05T06:43:45.858Z,94.89
2022-12-05T06:44:48.742Z,95.04
2022-12-05T06:45:52.708Z,95.38
2022-12-05T06:46:55.825Z,95.26
2022-12-05T06:47:59.516Z,94.96
2022-12-05T06:49:02.463Z,95.32
2022-12-05T06:50:07.279Z,95.58
2022-12-05T06:51:10.717Z,95.52
2022-12-05T06:52:14.494Z,95.30
2022-12-05T06:53:17.241Z,95.66
2022-12-05T06:54:21.159Z,95.63
2022-12-05T06:55:25.283Z,95.41
2022-12-05T06:56:29.953Z,95.35
2022-12-05T06:57:32.612Z,95.22
2022-12-05T06:58:36.338Z,95.59
2022-12-05T06:59:40.142Z,95.71
2022-12-05T07:01:15.645Z,95.63
2022-12-05T07:02:18.570Z,95.56
2022-12-05T07:03:21.325Z,95.49
2022-12-05T07:04:25.314Z,95.65
2022-12-05T07:05:28.015Z,95.36
2022-12-05T07:06:31.733Z,95.31
2022-12-05T07:07:34.579Z,95.26
2022-12-05T07:08:38.335Z,95.36
2022-12-05T07:09:48.620Z,95.67
2022-12-05T07:10:53.283Z,95.53
2022-12-05T07:11:57.076Z,95.60
2022-12-05T07:12:59.686Z,95.61
2022-12-05T07:14:10.426Z,95.81
2022-12-05T07:15:22.954Z,95.61
2022-12-05T07:16:25.808Z,95.44
2022-12-05T07:17:29.515Z,96.02
2022-12-05T07:18:32.248Z,95.85
2022-12-05T07:19:36.115Z,96.02
2022-12-05T07:21:03.992Z,95.97
2022-12-05T07:22:02.507Z,95.96
2022-12-05T07:23:05.174Z,96.24
2022-12-05T07:24:09.076Z,95.74
2022-12-05T07:25:11.768Z,96.50
2022-12-05T07:26:19.012Z,96.52
2022-12-05T07:27:26.892Z,96.59
2022-12-05T07:28:31.637Z,96.21
2022-12-05T07:29:34.335Z,96.44
2022-12-05T07:30:38.175Z,96.84
2022-12-05T07:31:41.988Z,96.45
2022-12-05T07:32:45.745Z,96.71
2022-12-05T07:33:48.641Z,96.62
2022-12-05T07:34:55.221Z,96.46
2022-12-05T07:36:02.013Z,96.25
2022-12-05T07:37:05.776Z,96.21
2022-12-05T07:38:08.437Z,96.05
2022-12-05T07:39:12.191Z,96.08
2022-12-05T07:40:15.530Z,96.48
2022-12-05T07:41:22.193Z,96.21
2022-12-05T07:42:24.972Z,96.41
2022-12-05T07:43:28.674Z,96.52
2022-12-05T07:44:31.633Z,96.82
2022-12-05T07:45:36.077Z,96.57
2022-12-05T07:46:38.972Z,96.18
2022-12-05T07:47:42.854Z,96.29
2022-12-05T07:48:45.865Z,95.84
2022-12-05T07:49:49.660Z,95.89
2022-12-05T07:50:52.331Z,95.39
2022-12-05T07:51:56.004Z,95.73
2022-12-05T07:52:58.652Z,95.64
2022-12-05T07:54:02.494Z,95.88
2022-12-05T07:55:07.441Z,95.89
2022-12-05T07:56:12.044Z,95.67
2022-12-05T07:57:16.170Z,95.69
2022-12-05T07:58:20.183Z,95.50
2022-12-05T07:59:22.804Z,95.08
2022-12-05T08:00:26.830Z,94.72
2022-12-05T08:01:30.446Z,94.41
2022-12-05T08:02:37.715Z,94.67
2022-12-05T08:03:44.743Z,94.49
2022-12-05T08:04:47.642Z,94.60
2022-12-05T08:05:51.506Z,94.03
2022-12-05T08:06:54.195Z,94.14
2022-12-05T08:07:57.966Z,94.01
2022-12-05T08:09:00.755Z,94.00
2022-12-05T08:10:04.890Z,93.96
2022-12-05T08:11:09.063Z,93.55
2022-12-05T08:12:13.530Z,93.66
2022-12-05T08:13:18.465Z,93.42
2022-12-05T08:14:22.267Z,93.08
2022-12-05T08:15:25.955Z,93.05
2022-12-05T08:16:30.743Z,93.00
2022-12-05T08:17:34.133Z,93.30
2022-12-05T08:18:38.122Z,93.09
2022-12-05T08:19:41.853Z,93.09
2022-12-05T08:20:44.579Z,92.75
2022-12-05T08:21:48.863Z,92.82
2022-12-05T08:22:55.056Z,92.39
2022-12-05T08:23:58.606Z,92.17
2022-12-05T08:25:03.018Z,92.39
2022-12-05T08:26:11.353Z,92.33
2022-12-05T08:27:14.123Z,91.93
2022-12-05T08:28:19.866Z,92.04
2022-12-05T08:29:24.946Z,92.25
2022-12-05T08:30:27.908Z,92.05
2022-12-05T08:31:33.334Z,91.89
2022-12-05T08:32:37.133Z,91.49
2022-12-05T08:33:40.033Z,91.29
2022-12-05T08:34:43.764Z,91.64
2022-12-05T08:35:46.495Z,91.61
2022-12-05T08:36:50.676Z,91.78
2022-12-05T08:37:53.391Z,91.56
2022-12-05T08:38:58.276Z,91.49
2022-12-05T08:40:00.986Z,91.30
2022-12-05T08:41:05.126Z,91.21
2022-12-05T08:42:08.862Z,90.80
2022-12-05T08:43:12.564Z,90.71
2022-12-05T08:44:17.315Z,90.44
2022-12-05T08:45:21.097Z,90.86
2022-12-05T08:46:23.999Z,91.11
2022-12-05T08:47:32.323Z,90.83
2022-12-05T08:48:37.244Z,90.67
2022-12-05T08:49:40.974Z,90.51
2022-12-05T08:50:43.746Z,90.61
2022-12-05T08:51:47.697Z,90.57
2022-12-05T08:52:51.623Z,90.33
2022-12-05T08:53:56.611Z,90.42
2022-12-05T08:55:00.666Z,90.70
2022-12-05T08:56:05.122Z,90.86
2022-12-05T08:57:08.853Z,89.83
2022-12-05T08:58:11.775Z,89.98
2022-12-05T08:59:15.609Z,89.95
2022-12-05T09:00:21.826Z,89.76
2022-12-05T09:01:30.559Z,89.57
2022-12-05T09:02:35.233Z,89.89
2022-12-05T09:03:40.101Z,89.65
2022-12-05T09:04:50.879Z,89.22
2022-12-05T09:05:56.294Z,89.13
2022-12-05T09:07:04.363Z,89.72
2022-12-05T09:08:08.944Z,89.03
2022-12-05T09:09:13.187Z,89.07
2022-12-05T09:10:17.161Z,88.85
2022-12-05T09:11:21.795Z,89.12
2022-12-05T09:12:25.543Z,89.35
2022-12-05T09:13:28.262Z,89.41
2022-12-05T09:14:33.207Z,89.64
2022-12-05T09:15:39.093Z,88.95
2022-12-05T09:16:53.337Z,89.24
2022-12-05T09:17:56.074Z,88.74
2022-12-05T09:18:59.875Z,87.62
2022-12-05T09:20:05.345Z,87.91
2022-12-05T09:21:08.593Z,88.47
2022-12-05T09:22:14.244Z,88.42
2022-12-05T09:23:17.048Z,88.05
2022-12-05T09:24:21.097Z,88.51
2022-12-05T09:25:23.832Z,88.65
2022-12-05T09:26:28.685Z,88.71
2022-12-05T09:27:33.758Z,88.42
2022-12-05T09:28:36.764Z,87.64
2022-12-05T09:29:40.763Z,88.36
2022-12-05T09:30:44.951Z,88.51
2022-12-05T09:31:51.796Z,87.75
2022-12-05T09:32:55.591Z,87.95
2022-12-05T09:33:59.512Z,87.48
2022-12-05T09:35:03.267Z,87.36
2022-12-05T09:36:07.044Z,87.06
2022-12-05T09:37:37.339Z,87.06
2022-12-05T09:38:35.494Z,86.98
2022-12-05T09:39:39.254Z,86.96
2022-12-05T09:40:43.288Z,86.31
2022-12-05T09:42:18.523Z,86.84
2022-12-05T09:43:26.053Z,86.41
2022-12-05T09:44:37.902Z,86.56
2022-12-05T09:45:47.771Z,86.43
2022-12-05T09:46:54.188Z,85.91
2022-12-05T09:48:01.564Z,85.56
2022-12-05T09:49:06.022Z,86.09
2022-12-05T09:50:16.212Z,86.06
2022-12-05T09:51:20.003Z,85.92
2022-12-05T09:52:26.497Z,85.52
2022-12-05T09:53:32.248Z,85.82
2022-12-05T09:54:34.994Z,86.10
2022-12-05T09:55:46.136Z,86.03
2022-12-05T09:56:51.606Z,85.97
2022-12-05T09:57:58.462Z,85.36
2022-12-05T09:59:02.256Z,85.08
2022-12-05T10:00:07.144Z,85.50
2022-12-05T10:01:31.092Z,85.91
2022-12-05T10:02:45.747Z,85.25
2022-12-05T10:04:03.215Z,85.76
2022-12-05T10:05:09.915Z,85.65
2022-12-05T10:06:17.498Z,85.33
2022-12-05T10:07:26.165Z,85.79
2022-12-05T10:08:35.214Z,84.97
2022-12-05T10:09:50.366Z,85.45
2022-12-05T10:11:01.412Z,85.33
2022-12-05T10:12:11.112Z,84.47
2022-12-05T10:13:23.776Z,84.54
2022-12-05T10:14:32.631Z,84.63
2022-12-05T10:15:38.551Z,84.24
2022-12-05T10:16:48.405Z,84.57
2022-12-05T10:17:57.872Z,84.49
2022-12-05T10:19:05.749Z,84.92
2022-12-05T10:20:14.563Z,85.24
2022-12-05T10:21:21.725Z,85.14
2022-12-05T10:22:29.323Z,85.02
2022-12-05T10:23:56.963Z,84.58
2022-12-05T10:25:02.973Z,84.73
2022-12-05T10:26:09.687Z,84.58
2022-12-05T10:27:18.347Z,85.08
2022-12-05T10:28:30.644Z,84.30
2022-12-05T10:29:37.543Z,84.96
2022-12-05T10:30:42.609Z,84.65
2022-12-05T10:31:49.706Z,84.77
2022-12-05T10:32:53.992Z,84.66
2022-12-05T10:34:07.974Z,84.16
2022-12-05T10:35:18.034Z,83.96
2022-12-05T10:36:20.743Z,84.01
2022-12-05T10:37:25.602Z,84.15
2022-12-05T10:38:31.225Z,84.36
2022-12-05T10:39:34.010Z,84.47
2022-12-05T10:40:39.821Z,83.66
2022-12-05T10:41:43.535Z,84.08
2022-12-05T10:42:46.666Z,83.16
2022-12-05T10:43:51.998Z,83.55
2022-12-05T10:44:58.988Z,82.79
2022-12-05T10:46:03.869Z,82.96
2022-12-05T10:47:10.333Z,83.01
2022-12-05T10:48:15.671Z,83.51
2022-12-05T10:49:20.423Z,83.43
2022-12-05T10:50:26.623Z,83.43
2022-12-05T10:51:37.010Z,83.31
2022-12-05T10:52:40.081Z,82.74
2022-12-05T10:53:45.294Z,83.49
2022-12-05T10:54:51.354Z,83.00
2022-12-05T10:56:28.612Z,82.82
2022-12-05T10:57:26.294Z,82.86
2022-12-05T10:58:30.983Z,83.09
2022-12-05T10:59:46.462Z,83.04
2022-12-05T11:00:55.375Z,83.12
2022-12-05T11:02:01.093Z,82.80
2022-12-05T11:03:06.064Z,82.64
2022-12-05T11:04:22.811Z,83.11
2022-12-05T11:05:31.089Z,82.94
2022-12-05T11:06:33.863Z,82.63
2022-12-05T11:07:48.496Z,83.01
2022-12-05T11:09:10.055Z,83.18
2022-12-05T11:10:26.442Z,82.94
2022-12-05T11:11:33.539Z,83.03
2022-12-05T11:12:39.205Z,83.17
2022-12-05T11:13:53.354Z,82.79
2022-12-05T11:15:13.176Z,82.36
2022-12-05T11:16:25.318Z,81.99
2022-12-05T11:17:32.934Z,82.21
2022-12-05T11:18:38.034Z,82.04
2022-12-05T11:19:41.781Z,82.62
2022-12-05T11:20:44.696Z,81.90
2022-12-05T11:21:49.459Z,81.92
2022-12-05T11:22:54.225Z,82.25
2022-12-05T11:23:59.256Z,83.17
2022-12-05T11:25:02.325Z,82.89
2022-12-05T11:26:06.365Z,82.88
2022-12-05T11:27:30.132Z,82.84
2022-12-05T11:28:38.575Z,83.16
2022-12-05T11:29:42.573Z,83.04
2022-12-05T11:30:57.992Z,83.44
2022-12-05T11:32:02.414Z,82.99
2022-12-05T11:33:14.164Z,82.85
2022-12-05T11:34:22.806Z,82.59
2022-12-05T11:35:28.804Z,82.64
2022-12-05T11:36:40.015Z,82.47
2022-12-05T11:37:46.812Z,82.37
2022-12-05T11:38:50.725Z,82.04
2022-12-05T11:39:53.691Z,82.15
2022-12-05T11:41:06.191Z,82.27
2022-12-05T11:42:30.964Z,81.97
2022-12-05T11:43:54.021Z,81.73
2022-12-05T11:45:07.574Z,82.00
2022-12-05T11:46:22.292Z,81.93
2022-12-05T11:47:41.994Z,81.74
2022-12-05T11:48:56.535Z,81.82
2022-12-05T11:50:20.312Z,81.53
2022-12-05T11:51:34.415Z,81.19
2022-12-05T11:52:48.191Z,81.48
2022-12-05T11:54:11.396Z,81.06
2022-12-05T11:55:17.122Z,81.46
2022-12-05T11:56:33.662Z,81.69
2022-12-05T11:57:54.875Z,81.45
2022-12-05T11:59:12.365Z,81.43
2022-12-05T12:00:25.112Z,80.91
2022-12-05T12:01:38.177Z,81.46
2022-12-05T12:02:54.361Z,81.13
2022-12-05T12:04:42.399Z,81.03
2022-12-05T12:05:55.915Z,81.23
2022-12-05T12:07:08.945Z,81.30
2022-12-05T12:08:20.139Z,80.92
2022-12-05T12:09:32.123Z,81.01
2022-12-05T12:10:42.286Z,81.14
2022-12-05T12:11:50.804Z,81.02
2022-12-05T12:13:03.005Z,80.86
2022-12-05T12:14:15.736Z,81.12
2022-12-05T12:15:34.706Z,81.19
2022-12-05T12:16:45.525Z,81.41
2022-12-05T12:17:55.421Z,80.75
2022-12-05T12:19:34.063Z,81.34
2022-12-05T12:20:49.540Z,81.20
2022-12-05T12:22:08.955Z,81.22
2022-12-05T12:23:33.805Z,80.99
2022-12-05T12:24:50.874Z,80.83
2022-12-05T12:26:04.934Z,81.38
2022-12-05T12:27:17.297Z,81.25
2022-12-05T12:28:33.350Z,81.50
2022-12-05T12:29:47.983Z,81.40
2022-12-05T12:31:04.323Z,81.22
2022-12-05T12:32:18.013Z,81.52
2022-12-05T12:33:31.144Z,81.75
2022-12-05T12:34:43.870Z,81.77
2022-12-05T12:35:52.951Z,81.38
2022-12-05T12:37:00.545Z,82.09
2022-12-05T12:38:26.894Z,81.61
2022-12-05T12:39:37.833Z,81.85
2022-12-05T12:40:48.303Z,81.45
2022-12-05T12:42:02.756Z,81.75
2022-12-05T12:43:25.257Z,81.66
2022-12-05T12:45:10.907Z,81.36
2022-12-05T12:46:24.901Z,81.56
2022-12-05T12:47:40.310Z,81.40
2022-12-05T12:49:00.620Z,82.21
2022-12-05T12:50:09.035Z,81.52
2022-12-05T12:51:15.690Z,82.28
2022-12-05T12:52:22.627Z,82.16
2022-12-05T12:53:43.534Z,81.84
2022-12-05T12:55:08.758Z,81.93
2022-12-05T12:56:22.349Z,82.32
2022-12-05T12:57:30.373Z,81.64
2022-12-05T12:58:46.135Z,82.49
2022-12-05T12:59:59.011Z,81.62
2022-12-05T13:01:08.244Z,82.05
2022-12-05T13:02:16.585Z,81.68
2022-12-05T13:03:23.688Z,82.41
2022-12-05T13:04:31.515Z,82.20
2022-12-05T13:05:36.444Z,82.13
2022-12-05T13:06:45.879Z,82.09
2022-12-05T13:07:51.957Z,81.89
2022-12-05T13:08:58.803Z,82.44
2022-12-05T13:10:06.850Z,82.57
2022-12-05T13:11:12.544Z,82.51
2022-12-05T13:12:19.274Z,82.68
2022-12-05T13:13:24.343Z,82.07
2022-12-05T13:14:28.923Z,82.14
2022-12-05T13:15:37.380Z,82.10
2022-12-05T13:16:46.125Z,82.56
2022-12-05T13:17:50.705Z,82.20
2022-12-05T13:18:54.772Z,82.01
2022-12-05T13:19:58.952Z,82.64
2022-12-05T13:21:05.123Z,82.48
2022-12-05T13:22:10.721Z,82.63
2022-12-05T13:23:16.408Z,82.31
2022-12-05T13:24:21.412Z,82.17
2022-12-05T13:25:28.818Z,82.44
2022-12-05T13:26:34.499Z,82.93
2022-12-05T13:27:38.475Z,82.19
2022-12-05T13:28:52.124Z,82.32
2022-12-05T13:29:57.802Z,82.25
2022-12-05T13:31:02.784Z,82.22
2022-12-05T13:32:08.854Z,82.44
2022-12-05T13:33:25.590Z,82.70
2022-12-05T13:34:47.733Z,82.94
2022-12-05T13:36:12.882Z,82.96
2022-12-05T13:37:41.219Z,83.31
2022-12-05T13:39:02.345Z,82.89
2022-12-05T13:40:25.189Z,83.32
2022-12-05T13:41:58.934Z,83.33
2022-12-05T13:43:03.845Z,83.47
2022-12-05T13:44:12.679Z,83.17
2022-12-05T13:45:20.176Z,83.47
2022-12-05T13:46:29.923Z,83.24
2022-12-05T13:47:35.471Z,82.98
2022-12-05T13:48:41.204Z,83.16
2022-12-05T13:49:49.173Z,83.16
2022-12-05T13:50:56.552Z,83.48
2022-12-05T13:52:07.077Z,82.82
2022-12-05T13:53:26.684Z,83.14
2022-12-05T13:54:31.403Z,82.94
2022-12-05T13:55:36.840Z,83.66
2022-12-05T13:56:54.384Z,83.27
2022-12-05T13:57:59.202Z,82.82
2022-12-05T13:59:02.924Z,83.72
2022-12-05T14:00:23.346Z,83.62
2022-12-05T14:01:55.688Z,82.90
2022-12-05T14:03:05.581Z,83.21
2022-12-05T14:04:24.564Z,83.52
2022-12-05T14:05:48.910Z,83.07
2022-12-05T14:06:58.603Z,83.36
2022-12-05T14:08:03.979Z,83.54
2022-12-05T14:09:30.655Z,83.23
2022-12-05T14:11:09.220Z,83.56
2022-12-05T14:12:39.597Z,82.94
2022-12-05T14:13:45.456Z,83.10
2022-12-05T14:15:04.177Z,83.80
2022-12-05T14:16:50.408Z,83.21
2022-12-05T14:17:59.215Z,83.76
2022-12-05T14:19:08.183Z,83.02
2022-12-05T14:20:25.730Z,83.19
2022-12-05T14:21:40.037Z,83.33
2022-12-05T14:23:12.662Z,83.14
2022-12-05T14:24:24.534Z,83.38
2022-12-05T14:25:37.916Z,83.48
2022-12-05T14:26:56.000Z,83.75
2022-12-05T14:28:04.590Z,83.39
2022-12-05T14:29:21.964Z,83.76
2022-12-05T14:30:30.520Z,83.93
2022-12-05T14:31:41.664Z,84.28
2022-12-05T14:32:45.609Z,83.86
2022-12-05T14:34:06.064Z,83.73
2022-12-05T14:35:13.955Z,83.79
2022-12-05T14:36:31.076Z,84.37
2022-12-05T14:37:38.216Z,83.74
2022-12-05T14:38:42.086Z,83.85
2022-12-05T14:39:49.184Z,83.53
2022-12-05T14:40:53.095Z,84.16
2022-12-05T14:41:58.146Z,84.04
2022-12-05T14:43:03.775Z,84.06
2022-12-05T14:44:17.996Z,84.19
2022-12-05T14:45:33.653Z,83.54
2022-12-05T14:46:37.526Z,84.23
2022-12-05T14:47:41.453Z,84.21
2022-12-05T14:48:48.429Z,83.53
2022-12-05T14:49:55.065Z,83.84
2022-12-05T14:50:59.517Z,83.71
2022-12-05T14:52:10.735Z,83.52
2022-12-05T14:53:42.383Z,84.22
2022-12-05T14:54:47.003Z,84.29
2022-12-05T14:55:54.603Z,83.85
2022-12-05T14:57:05.311Z,83.90
2022-12-05T14:58:17.875Z,84.22
2022-12-05T14:59:26.426Z,84.17
2022-12-05T15:00:30.405Z,84.41
2022-12-05T15:01:36.830Z,84.43
2022-12-05T15:02:45.810Z,84.19
2022-12-05T15:04:11.906Z,84.59
2022-12-05T15:05:24.153Z,84.54
2022-12-05T15:06:28.437Z,84.04